sensor_id;sensor_type;location;lat;lon;timestamp;temperature;humidity
74101;DHT22;62462;52.530;21.682;2023-05-28T00:00:32;11.70;51.10
74101;DHT22;62462;52.530;21.682;2023-05-28T00:02:58;11.70;51.10
74101;DHT22;62462;52.530;21.682;2023-05-28T00:05:25;11.70;51.40
74101;DHT22;62462;52.530;21.682;2023-05-28T00:07:51;11.60;51.70
74101;DHT22;62462;52.530;21.682;2023-05-28T00:10:16;11.50;51.90
74101;DHT22;62462;52.530;21.682;2023-05-28T00:12:43;11.50;51.70
74101;DHT22;62462;52.530;21.682;2023-05-28T00:15:09;11.60;51.50
74101;DHT22;62462;52.530;21.682;2023-05-28T00:17:35;11.50;51.10
74101;DHT22;62462;52.530;21.682;2023-05-28T00:20:01;11.50;51.30
74101;DHT22;62462;52.530;21.682;2023-05-28T00:22:27;11.50;51.20
74101;DHT22;62462;52.530;21.682;2023-05-28T00:24:52;11.50;51.60
74101;DHT22;62462;52.530;21.682;2023-05-28T00:27:18;11.30;52.00
74101;DHT22;62462;52.530;21.682;2023-05-28T00:29:44;11.30;52.00
74101;DHT22;62462;52.530;21.682;2023-05-28T00:32:09;11.40;51.80
74101;DHT22;62462;52.530;21.682;2023-05-28T00:34:35;11.30;51.50
74101;DHT22;62462;52.530;21.682;2023-05-28T00:37:01;11.30;51.30
74101;DHT22;62462;52.530;21.682;2023-05-28T00:39:27;11.30;51.20
74101;DHT22;62462;52.530;21.682;2023-05-28T00:42:19;11.30;51.40
74101;DHT22;62462;52.530;21.682;2023-05-28T00:44:44;11.30;51.70
74101;DHT22;62462;52.530;21.682;2023-05-28T00:47:11;11.20;52.10
74101;DHT22;62462;52.530;21.682;2023-05-28T00:49:36;11.20;52.00
74101;DHT22;62462;52.530;21.682;2023-05-28T00:52:03;11.20;52.30
74101;DHT22;62462;52.530;21.682;2023-05-28T00:54:32;11.30;51.90
74101;DHT22;62462;52.530;21.682;2023-05-28T00:56:58;11.20;51.10
74101;DHT22;62462;52.530;21.682;2023-05-28T00:59:27;11.10;51.00
74101;DHT22;62462;52.530;21.682;2023-05-28T01:01:53;11.10;51.60
74101;DHT22;62462;52.530;21.682;2023-05-28T01:04:19;11.00;51.80
74101;DHT22;62462;52.530;21.682;2023-05-28T01:06:47;10.90;52.40
74101;DHT22;62462;52.530;21.682;2023-05-28T01:09:13;10.90;52.30
74101;DHT22;62462;52.530;21.682;2023-05-28T01:11:40;10.90;51.90
74101;DHT22;62462;52.530;21.682;2023-05-28T01:14:08;10.90;51.80
74101;DHT22;62462;52.530;21.682;2023-05-28T01:16:34;10.80;51.90
74101;DHT22;62462;52.530;21.682;2023-05-28T01:19:02;10.80;52.20
74101;DHT22;62462;52.530;21.682;2023-05-28T01:21:34;10.80;52.10
74101;DHT22;62462;52.530;21.682;2023-05-28T01:24:03;10.80;52.10
74101;DHT22;62462;52.530;21.682;2023-05-28T01:26:30;10.80;51.60
74101;DHT22;62462;52.530;21.682;2023-05-28T01:28:55;10.70;51.50
74101;DHT22;62462;52.530;21.682;2023-05-28T01:31:21;10.70;51.80
74101;DHT22;62462;52.530;21.682;2023-05-28T01:33:47;10.60;52.00
74101;DHT22;62462;52.530;21.682;2023-05-28T01:36:24;10.60;51.80
74101;DHT22;62462;52.530;21.682;2023-05-28T01:38:53;10.60;52.10
74101;DHT22;62462;52.530;21.682;2023-05-28T01:41:25;10.60;52.30
74101;DHT22;62462;52.530;21.682;2023-05-28T01:43:51;10.50;52.40
74101;DHT22;62462;52.530;21.682;2023-05-28T01:46:19;10.50;52.50
74101;DHT22;62462;52.530;21.682;2023-05-28T01:48:45;10.40;52.70
74101;DHT22;62462;52.530;21.682;2023-05-28T01:51:15;10.50;53.00
74101;DHT22;62462;52.530;21.682;2023-05-28T01:53:41;10.50;53.00
74101;DHT22;62462;52.530;21.682;2023-05-28T01:56:06;10.40;52.60
74101;DHT22;62462;52.530;21.682;2023-05-28T01:58:33;10.40;52.10
74101;DHT22;62462;52.530;21.682;2023-05-28T02:01:19;10.30;52.50
74101;DHT22;62462;52.530;21.682;2023-05-28T02:03:46;10.30;53.00
74101;DHT22;62462;52.530;21.682;2023-05-28T02:06:12;10.20;53.00
74101;DHT22;62462;52.530;21.682;2023-05-28T02:08:38;10.30;53.20
74101;DHT22;62462;52.530;21.682;2023-05-28T02:11:03;10.30;52.90
74101;DHT22;62462;52.530;21.682;2023-05-28T02:13:29;10.30;52.50
74101;DHT22;62462;52.530;21.682;2023-05-28T02:15:55;10.20;52.50
74101;DHT22;62462;52.530;21.682;2023-05-28T02:18:21;10.20;52.80
74101;DHT22;62462;52.530;21.682;2023-05-28T02:20:47;10.00;53.20
74101;DHT22;62462;52.530;21.682;2023-05-28T02:23:13;10.00;53.10
74101;DHT22;62462;52.530;21.682;2023-05-28T02:25:38;10.00;52.90
74101;DHT22;62462;52.530;21.682;2023-05-28T02:28:04;10.00;53.30
74101;DHT22;62462;52.530;21.682;2023-05-28T02:30:30;10.00;53.50
74101;DHT22;62462;52.530;21.682;2023-05-28T02:32:56;10.00;53.40
74101;DHT22;62462;52.530;21.682;2023-05-28T02:35:22;10.10;53.40
74101;DHT22;62462;52.530;21.682;2023-05-28T02:37:49;10.00;53.00
74101;DHT22;62462;52.530;21.682;2023-05-28T02:40:15;10.00;53.00
74101;DHT22;62462;52.530;21.682;2023-05-28T02:42:41;10.00;53.30
74101;DHT22;62462;52.530;21.682;2023-05-28T02:45:07;10.00;53.40
74101;DHT22;62462;52.530;21.682;2023-05-28T02:47:33;10.00;52.90
74101;DHT22;62462;52.530;21.682;2023-05-28T02:49:58;10.00;52.90
74101;DHT22;62462;52.530;21.682;2023-05-28T02:52:24;9.90;53.10
74101;DHT22;62462;52.530;21.682;2023-05-28T02:54:50;9.90;53.50
74101;DHT22;62462;52.530;21.682;2023-05-28T02:57:15;9.90;53.80
74101;DHT22;62462;52.530;21.682;2023-05-28T02:59:41;9.90;54.10
74101;DHT22;62462;52.530;21.682;2023-05-28T03:02:07;10.00;54.00
74101;DHT22;62462;52.530;21.682;2023-05-28T03:04:32;10.00;54.00
74101;DHT22;62462;52.530;21.682;2023-05-28T03:07:01;10.00;54.00
74101;DHT22;62462;52.530;21.682;2023-05-28T03:09:26;10.00;54.10
74101;DHT22;62462;52.530;21.682;2023-05-28T03:11:52;10.10;54.30
74101;DHT22;62462;52.530;21.682;2023-05-28T03:14:18;10.10;54.40
74101;DHT22;62462;52.530;21.682;2023-05-28T03:16:43;10.10;54.50
74101;DHT22;62462;52.530;21.682;2023-05-28T03:19:09;10.10;54.30
74101;DHT22;62462;52.530;21.682;2023-05-28T03:21:35;10.10;54.70
74101;DHT22;62462;52.530;21.682;2023-05-28T03:24:01;10.10;54.50
74101;DHT22;62462;52.530;21.682;2023-05-28T03:26:26;10.10;54.70
74101;DHT22;62462;52.530;21.682;2023-05-28T03:28:52;10.10;54.90
74101;DHT22;62462;52.530;21.682;2023-05-28T03:31:19;10.10;54.90
74101;DHT22;62462;52.530;21.682;2023-05-28T03:33:45;10.10;55.30
74101;DHT22;62462;52.530;21.682;2023-05-28T03:36:11;10.20;55.50
74101;DHT22;62462;52.530;21.682;2023-05-28T03:38:36;10.20;55.60
74101;DHT22;62462;52.530;21.682;2023-05-28T03:41:02;10.20;55.70
74101;DHT22;62462;52.530;21.682;2023-05-28T03:43:29;10.30;55.70
74101;DHT22;62462;52.530;21.682;2023-05-28T03:45:55;10.30;55.70
74101;DHT22;62462;52.530;21.682;2023-05-28T03:48:21;10.30;56.20
74101;DHT22;62462;52.530;21.682;2023-05-28T03:50:46;10.40;56.50
74101;DHT22;62462;52.530;21.682;2023-05-28T03:53:12;10.40;56.60
74101;DHT22;62462;52.530;21.682;2023-05-28T03:55:38;10.50;56.60
74101;DHT22;62462;52.530;21.682;2023-05-28T03:58:05;10.60;56.30
74101;DHT22;62462;52.530;21.682;2023-05-28T04:00:30;10.70;56.40
74101;DHT22;62462;52.530;21.682;2023-05-28T04:02:56;10.80;56.60
74101;DHT22;62462;52.530;21.682;2023-05-28T04:05:22;10.90;56.50
74101;DHT22;62462;52.530;21.682;2023-05-28T04:07:48;11.10;56.70
74101;DHT22;62462;52.530;21.682;2023-05-28T04:10:14;11.10;56.80
74101;DHT22;62462;52.530;21.682;2023-05-28T04:12:40;11.20;56.90
74101;DHT22;62462;52.530;21.682;2023-05-28T04:15:06;11.30;57.00
74101;DHT22;62462;52.530;21.682;2023-05-28T04:17:32;11.40;57.50
74101;DHT22;62462;52.530;21.682;2023-05-28T04:19:58;11.50;56.90
74101;DHT22;62462;52.530;21.682;2023-05-28T04:22:24;11.60;57.10
74101;DHT22;62462;52.530;21.682;2023-05-28T04:24:52;11.70;56.70
74101;DHT22;62462;52.530;21.682;2023-05-28T04:27:20;11.80;56.80
74101;DHT22;62462;52.530;21.682;2023-05-28T04:29:46;11.90;56.50
74101;DHT22;62462;52.530;21.682;2023-05-28T04:32:13;12.00;56.40
74101;DHT22;62462;52.530;21.682;2023-05-28T04:34:39;12.10;56.20
74101;DHT22;62462;52.530;21.682;2023-05-28T04:37:06;12.30;55.80
74101;DHT22;62462;52.530;21.682;2023-05-28T04:39:33;12.40;55.50
74101;DHT22;62462;52.530;21.682;2023-05-28T04:41:59;12.40;55.30
74101;DHT22;62462;52.530;21.682;2023-05-28T04:44:29;12.50;55.30
74101;DHT22;62462;52.530;21.682;2023-05-28T04:46:55;12.60;55.10
74101;DHT22;62462;52.530;21.682;2023-05-28T04:49:25;12.70;54.90
74101;DHT22;62462;52.530;21.682;2023-05-28T04:51:50;12.80;54.70
74101;DHT22;62462;52.530;21.682;2023-05-28T04:54:16;12.80;54.60
74101;DHT22;62462;52.530;21.682;2023-05-28T04:56:42;12.90;54.50
74101;DHT22;62462;52.530;21.682;2023-05-28T04:59:09;13.00;54.60
74101;DHT22;62462;52.530;21.682;2023-05-28T05:01:37;13.10;54.30
74101;DHT22;62462;52.530;21.682;2023-05-28T05:04:05;13.30;54.40
74101;DHT22;62462;52.530;21.682;2023-05-28T05:06:32;13.40;54.30
74101;DHT22;62462;52.530;21.682;2023-05-28T05:08:59;13.50;54.10
74101;DHT22;62462;52.530;21.682;2023-05-28T05:11:25;13.60;53.90
74101;DHT22;62462;52.530;21.682;2023-05-28T05:13:52;13.60;53.60
74101;DHT22;62462;52.530;21.682;2023-05-28T05:16:19;13.70;53.50
74101;DHT22;62462;52.530;21.682;2023-05-28T05:18:45;13.70;53.50
74101;DHT22;62462;52.530;21.682;2023-05-28T05:21:11;13.80;53.30
74101;DHT22;62462;52.530;21.682;2023-05-28T05:23:41;13.90;53.00
74101;DHT22;62462;52.530;21.682;2023-05-28T05:26:07;14.00;52.40
74101;DHT22;62462;52.530;21.682;2023-05-28T05:28:35;14.10;52.20
74101;DHT22;62462;52.530;21.682;2023-05-28T05:31:01;14.30;52.20
74101;DHT22;62462;52.530;21.682;2023-05-28T05:33:27;14.40;52.20
74101;DHT22;62462;52.530;21.682;2023-05-28T05:35:52;14.50;52.90
74101;DHT22;62462;52.530;21.682;2023-05-28T05:38:18;14.70;51.40
74101;DHT22;62462;52.530;21.682;2023-05-28T05:40:44;14.80;51.70
74101;DHT22;62462;52.530;21.682;2023-05-28T05:43:09;14.90;51.20
74101;DHT22;62462;52.530;21.682;2023-05-28T05:45:35;15.00;51.00
74101;DHT22;62462;52.530;21.682;2023-05-28T05:48:01;15.20;50.70
74101;DHT22;62462;52.530;21.682;2023-05-28T05:50:27;15.30;50.40
74101;DHT22;62462;52.530;21.682;2023-05-28T05:52:53;15.30;50.20
74101;DHT22;62462;52.530;21.682;2023-05-28T05:55:18;15.50;50.00
74101;DHT22;62462;52.530;21.682;2023-05-28T05:57:44;15.60;48.60
74101;DHT22;62462;52.530;21.682;2023-05-28T06:00:11;15.70;48.10
74101;DHT22;62462;52.530;21.682;2023-05-28T06:02:39;15.80;48.40
74101;DHT22;62462;52.530;21.682;2023-05-28T06:05:05;15.80;48.30
74101;DHT22;62462;52.530;21.682;2023-05-28T06:07:32;15.80;48.20
74101;DHT22;62462;52.530;21.682;2023-05-28T06:09:58;15.90;47.40
74101;DHT22;62462;52.530;21.682;2023-05-28T06:12:24;15.80;45.00
74101;DHT22;62462;52.530;21.682;2023-05-28T06:14:50;15.80;45.10
74101;DHT22;62462;52.530;21.682;2023-05-28T06:17:15;15.80;45.70
74101;DHT22;62462;52.530;21.682;2023-05-28T06:19:41;15.90;46.40
74101;DHT22;62462;52.530;21.682;2023-05-28T06:22:07;16.10;46.70
74101;DHT22;62462;52.530;21.682;2023-05-28T06:24:36;16.30;46.30
74101;DHT22;62462;52.530;21.682;2023-05-28T06:27:04;16.40;46.40
74101;DHT22;62462;52.530;21.682;2023-05-28T06:29:30;16.60;45.80
74101;DHT22;62462;52.530;21.682;2023-05-28T06:31:56;16.70;44.70
74101;DHT22;62462;52.530;21.682;2023-05-28T06:34:22;16.70;43.60
74101;DHT22;62462;52.530;21.682;2023-05-28T06:36:48;16.80;44.00
74101;DHT22;62462;52.530;21.682;2023-05-28T06:39:13;16.90;44.10
74101;DHT22;62462;52.530;21.682;2023-05-28T06:41:39;17.00;44.50
74101;DHT22;62462;52.530;21.682;2023-05-28T06:44:05;17.10;44.40
74101;DHT22;62462;52.530;21.682;2023-05-28T06:46:31;17.20;44.40
74101;DHT22;62462;52.530;21.682;2023-05-28T06:48:57;17.30;44.30
74101;DHT22;62462;52.530;21.682;2023-05-28T06:51:23;17.40;43.20
74101;DHT22;62462;52.530;21.682;2023-05-28T06:53:49;17.50;41.60
74101;DHT22;62462;52.530;21.682;2023-05-28T06:56:15;17.40;40.90
74101;DHT22;62462;52.530;21.682;2023-05-28T06:58:41;17.50;41.90
74101;DHT22;62462;52.530;21.682;2023-05-28T07:01:06;17.60;42.20
74101;DHT22;62462;52.530;21.682;2023-05-28T07:03:32;17.60;41.30
74101;DHT22;62462;52.530;21.682;2023-05-28T07:05:58;17.60;41.50
74101;DHT22;62462;52.530;21.682;2023-05-28T07:08:23;17.80;42.20
74101;DHT22;62462;52.530;21.682;2023-05-28T07:10:49;17.80;40.00
74101;DHT22;62462;52.530;21.682;2023-05-28T07:13:15;17.90;40.40
74101;DHT22;62462;52.530;21.682;2023-05-28T07:15:40;17.90;40.50
74101;DHT22;62462;52.530;21.682;2023-05-28T07:18:06;18.00;38.70
74101;DHT22;62462;52.530;21.682;2023-05-28T07:20:32;18.00;39.40
74101;DHT22;62462;52.530;21.682;2023-05-28T07:22:57;18.10;39.50
74101;DHT22;62462;52.530;21.682;2023-05-28T07:25:23;18.30;37.90
74101;DHT22;62462;52.530;21.682;2023-05-28T07:27:49;18.40;37.10
74101;DHT22;62462;52.530;21.682;2023-05-28T07:30:17;18.50;35.80
74101;DHT22;62462;52.530;21.682;2023-05-28T07:32:42;18.40;35.30
74101;DHT22;62462;52.530;21.682;2023-05-28T07:35:08;18.40;36.30
74101;DHT22;62462;52.530;21.682;2023-05-28T07:37:34;18.40;36.30
74101;DHT22;62462;52.530;21.682;2023-05-28T07:40:00;18.50;35.40
74101;DHT22;62462;52.530;21.682;2023-05-28T07:42:26;18.50;35.40
74101;DHT22;62462;52.530;21.682;2023-05-28T07:44:51;18.60;35.80
74101;DHT22;62462;52.530;21.682;2023-05-28T07:47:17;18.60;35.40
74101;DHT22;62462;52.530;21.682;2023-05-28T07:49:43;18.60;33.60
74101;DHT22;62462;52.530;21.682;2023-05-28T07:52:08;18.60;34.30
74101;DHT22;62462;52.530;21.682;2023-05-28T07:54:34;18.60;34.60
74101;DHT22;62462;52.530;21.682;2023-05-28T07:57:00;18.70;36.60
74101;DHT22;62462;52.530;21.682;2023-05-28T07:59:27;18.90;35.50
74101;DHT22;62462;52.530;21.682;2023-05-28T08:01:53;19.10;34.20
74101;DHT22;62462;52.530;21.682;2023-05-28T08:04:19;19.10;31.80
74101;DHT22;62462;52.530;21.682;2023-05-28T08:06:45;19.20;33.00
74101;DHT22;62462;52.530;21.682;2023-05-28T08:12:20;19.40;34.70
74101;DHT22;62462;52.530;21.682;2023-05-28T08:14:46;19.60;35.10
74101;DHT22;62462;52.530;21.682;2023-05-28T08:17:11;19.80;35.10
74101;DHT22;62462;52.530;21.682;2023-05-28T08:19:37;20.00;32.40
74101;DHT22;62462;52.530;21.682;2023-05-28T08:22:04;20.00;31.90
74101;DHT22;62462;52.530;21.682;2023-05-28T08:24:30;20.10;32.60
74101;DHT22;62462;52.530;21.682;2023-05-28T08:26:55;20.20;33.70
74101;DHT22;62462;52.530;21.682;2023-05-28T08:29:21;20.40;32.60
74101;DHT22;62462;52.530;21.682;2023-05-28T08:31:47;20.50;31.40
74101;DHT22;62462;52.530;21.682;2023-05-28T08:34:13;20.50;31.20
74101;DHT22;62462;52.530;21.682;2023-05-28T08:36:39;20.50;32.80
74101;DHT22;62462;52.530;21.682;2023-05-28T08:39:04;20.60;31.70
74101;DHT22;62462;52.530;21.682;2023-05-28T08:41:30;20.60;32.80
74101;DHT22;62462;52.530;21.682;2023-05-28T08:43:56;20.80;31.30
74101;DHT22;62462;52.530;21.682;2023-05-28T08:46:22;20.80;30.80
74101;DHT22;62462;52.530;21.682;2023-05-28T08:48:48;20.80;32.80
74101;DHT22;62462;52.530;21.682;2023-05-28T08:51:17;20.90;33.10
74101;DHT22;62462;52.530;21.682;2023-05-28T08:53:46;21.10;32.60
74101;DHT22;62462;52.530;21.682;2023-05-28T08:56:13;21.20;32.30
74101;DHT22;62462;52.530;21.682;2023-05-28T08:58:39;21.30;31.60
74101;DHT22;62462;52.530;21.682;2023-05-28T09:01:06;21.30;32.90
74101;DHT22;62462;52.530;21.682;2023-05-28T09:03:38;21.50;31.50
74101;DHT22;62462;52.530;21.682;2023-05-28T09:06:07;21.50;30.20
74101;DHT22;62462;52.530;21.682;2023-05-28T09:08:33;21.40;30.40
74101;DHT22;62462;52.530;21.682;2023-05-28T09:11:13;21.50;30.90
74101;DHT22;62462;52.530;21.682;2023-05-28T09:13:43;21.50;29.80
74101;DHT22;62462;52.530;21.682;2023-05-28T09:16:10;21.40;31.00
74101;DHT22;62462;52.530;21.682;2023-05-28T09:18:36;21.40;29.70
74101;DHT22;62462;52.530;21.682;2023-05-28T09:21:07;21.40;29.30
74101;DHT22;62462;52.530;21.682;2023-05-28T09:23:34;21.30;29.30
74101;DHT22;62462;52.530;21.682;2023-05-28T09:26:00;21.40;30.70
74101;DHT22;62462;52.530;21.682;2023-05-28T09:28:26;21.60;32.20
74101;DHT22;62462;52.530;21.682;2023-05-28T09:31:04;21.80;30.60
74101;DHT22;62462;52.530;21.682;2023-05-28T09:33:32;21.90;29.30
74101;DHT22;62462;52.530;21.682;2023-05-28T09:36:00;22.00;29.40
74101;DHT22;62462;52.530;21.682;2023-05-28T09:38:26;21.90;28.80
74101;DHT22;62462;52.530;21.682;2023-05-28T09:40:55;21.70;28.40
74101;DHT22;62462;52.530;21.682;2023-05-28T09:43:27;21.60;27.90
74101;DHT22;62462;52.530;21.682;2023-05-28T09:46:09;21.70;29.60
74101;DHT22;62462;52.530;21.682;2023-05-28T09:48:35;21.90;30.90
74101;DHT22;62462;52.530;21.682;2023-05-28T09:51:03;22.10;30.90
74101;DHT22;62462;52.530;21.682;2023-05-28T09:53:30;22.20;29.10
74101;DHT22;62462;52.530;21.682;2023-05-28T09:56:00;22.20;30.00
74101;DHT22;62462;52.530;21.682;2023-05-28T09:58:33;22.20;29.10
74101;DHT22;62462;52.530;21.682;2023-05-28T10:01:08;22.10;29.40
74101;DHT22;62462;52.530;21.682;2023-05-28T10:03:46;22.20;30.30
74101;DHT22;62462;52.530;21.682;2023-05-28T10:06:21;22.30;29.70
74101;DHT22;62462;52.530;21.682;2023-05-28T10:08:53;22.40;29.00
74101;DHT22;62462;52.530;21.682;2023-05-28T10:11:22;22.50;29.70
74101;DHT22;62462;52.530;21.682;2023-05-28T10:13:51;22.60;29.00
74101;DHT22;62462;52.530;21.682;2023-05-28T10:16:18;22.60;28.40
74101;DHT22;62462;52.530;21.682;2023-05-28T10:18:44;22.60;28.70
74101;DHT22;62462;52.530;21.682;2023-05-28T10:21:10;22.60;29.10
74101;DHT22;62462;52.530;21.682;2023-05-28T10:23:39;22.60;28.50
74101;DHT22;62462;52.530;21.682;2023-05-28T10:26:06;22.70;28.40
74101;DHT22;62462;52.530;21.682;2023-05-28T10:28:32;22.80;29.30
74101;DHT22;62462;52.530;21.682;2023-05-28T10:31:07;22.90;28.50
74101;DHT22;62462;52.530;21.682;2023-05-28T10:33:43;22.90;28.60
74101;DHT22;62462;52.530;21.682;2023-05-28T10:36:18;23.20;29.80
74101;DHT22;62462;52.530;21.682;2023-05-28T10:39:06;23.40;28.70
74101;DHT22;62462;52.530;21.682;2023-05-28T10:41:33;23.40;27.10
74101;DHT22;62462;52.530;21.682;2023-05-28T10:44:05;23.50;28.30
74101;DHT22;62462;52.530;21.682;2023-05-28T10:46:38;23.60;29.20
74101;DHT22;62462;52.530;21.682;2023-05-28T10:49:06;23.80;28.80
74101;DHT22;62462;52.530;21.682;2023-05-28T10:57:16;23.80;28.60
74101;DHT22;62462;52.530;21.682;2023-05-28T11:02:12;23.80;28.70
74101;DHT22;62462;52.530;21.682;2023-05-28T11:04:38;24.00;27.70
74101;DHT22;62462;52.530;21.682;2023-05-28T11:07:05;23.90;26.90
74101;DHT22;62462;52.530;21.682;2023-05-28T11:09:31;23.80;26.70
74101;DHT22;62462;52.530;21.682;2023-05-28T11:12:01;23.60;26.70
74101;DHT22;62462;52.530;21.682;2023-05-28T11:14:38;23.60;27.40
74101;DHT22;62462;52.530;21.682;2023-05-28T11:17:09;23.70;27.20
74101;DHT22;62462;52.530;21.682;2023-05-28T11:19:46;23.60;27.40
74101;DHT22;62462;52.530;21.682;2023-05-28T11:22:13;23.60;28.20
74101;DHT22;62462;52.530;21.682;2023-05-28T11:25:03;23.60;27.80
74101;DHT22;62462;52.530;21.682;2023-05-28T11:27:31;23.60;27.50
74101;DHT22;62462;52.530;21.682;2023-05-28T11:30:02;23.60;27.10
74101;DHT22;62462;52.530;21.682;2023-05-28T11:32:32;23.70;27.90
74101;DHT22;62462;52.530;21.682;2023-05-28T11:34:58;23.90;28.00
74101;DHT22;62462;52.530;21.682;2023-05-28T11:37:29;24.00;27.80
74101;DHT22;62462;52.530;21.682;2023-05-28T11:39:56;24.20;27.90
74101;DHT22;62462;52.530;21.682;2023-05-28T11:42:23;24.30;26.90
74101;DHT22;62462;52.530;21.682;2023-05-28T11:44:50;24.40;27.30
74101;DHT22;62462;52.530;21.682;2023-05-28T11:47:17;24.50;28.20
74101;DHT22;62462;52.530;21.682;2023-05-28T11:49:43;24.60;28.70
74101;DHT22;62462;52.530;21.682;2023-05-28T11:52:14;24.70;28.40
74101;DHT22;62462;52.530;21.682;2023-05-28T11:54:41;24.80;27.90
74101;DHT22;62462;52.530;21.682;2023-05-28T11:57:09;24.80;26.10
74101;DHT22;62462;52.530;21.682;2023-05-28T11:59:35;24.60;26.80
74101;DHT22;62462;52.530;21.682;2023-05-28T12:02:15;24.60;27.20
74101;DHT22;62462;52.530;21.682;2023-05-28T12:04:58;24.60;26.80
74101;DHT22;62462;52.530;21.682;2023-05-28T12:07:32;24.80;27.30
74101;DHT22;62462;52.530;21.682;2023-05-28T12:10:18;25.10;27.60
74101;DHT22;62462;52.530;21.682;2023-05-28T12:12:49;25.20;25.70
74101;DHT22;62462;52.530;21.682;2023-05-28T12:15:16;25.10;25.60
74101;DHT22;62462;52.530;21.682;2023-05-28T12:17:43;25.20;26.90
74101;DHT22;62462;52.530;21.682;2023-05-28T12:22:40;25.20;25.70
74101;DHT22;62462;52.530;21.682;2023-05-28T12:25:07;25.20;25.70
74101;DHT22;62462;52.530;21.682;2023-05-28T12:27:33;25.30;26.50
74101;DHT22;62462;52.530;21.682;2023-05-28T12:29:59;25.40;25.80
74101;DHT22;62462;52.530;21.682;2023-05-28T12:32:25;25.50;25.80
74101;DHT22;62462;52.530;21.682;2023-05-28T12:34:52;25.60;26.10
74101;DHT22;62462;52.530;21.682;2023-05-28T12:37:19;25.70;25.90
74101;DHT22;62462;52.530;21.682;2023-05-28T12:39:45;25.80;24.90
74101;DHT22;62462;52.530;21.682;2023-05-28T12:42:11;25.80;25.90
74101;DHT22;62462;52.530;21.682;2023-05-28T12:44:37;25.90;25.40
74101;DHT22;62462;52.530;21.682;2023-05-28T12:47:03;25.90;25.30
74101;DHT22;62462;52.530;21.682;2023-05-28T12:49:28;26.00;25.70
74101;DHT22;62462;52.530;21.682;2023-05-28T12:51:54;26.00;24.90
74101;DHT22;62462;52.530;21.682;2023-05-28T12:54:20;25.90;24.30
74101;DHT22;62462;52.530;21.682;2023-05-28T12:56:46;25.70;24.10
74101;DHT22;62462;52.530;21.682;2023-05-28T12:59:25;25.70;24.70
74101;DHT22;62462;52.530;21.682;2023-05-28T13:01:51;25.70;24.60
74101;DHT22;62462;52.530;21.682;2023-05-28T13:04:18;25.60;23.90
74101;DHT22;62462;52.530;21.682;2023-05-28T13:06:44;25.60;24.10
74101;DHT22;62462;52.530;21.682;2023-05-28T13:09:11;25.60;24.60
74101;DHT22;62462;52.530;21.682;2023-05-28T13:11:42;25.60;24.80
74101;DHT22;62462;52.530;21.682;2023-05-28T13:14:08;25.70;25.30
74101;DHT22;62462;52.530;21.682;2023-05-28T13:16:35;25.90;26.00
74101;DHT22;62462;52.530;21.682;2023-05-28T13:19:01;26.20;26.20
74101;DHT22;62462;52.530;21.682;2023-05-28T13:21:30;26.40;25.80
74101;DHT22;62462;52.530;21.682;2023-05-28T13:24:01;26.40;23.30
74101;DHT22;62462;52.530;21.682;2023-05-28T13:26:27;26.30;24.50
74101;DHT22;62462;52.530;21.682;2023-05-28T13:28:54;26.40;24.30
74101;DHT22;62462;52.530;21.682;2023-05-28T13:31:20;26.30;24.90
74101;DHT22;62462;52.530;21.682;2023-05-28T13:33:46;26.30;24.10
74101;DHT22;62462;52.530;21.682;2023-05-28T13:36:12;26.10;24.20
74101;DHT22;62462;52.530;21.682;2023-05-28T13:38:39;26.10;24.30
74101;DHT22;62462;52.530;21.682;2023-05-28T13:41:06;26.00;25.00
74101;DHT22;62462;52.530;21.682;2023-05-28T13:43:32;25.90;24.20
74101;DHT22;62462;52.530;21.682;2023-05-28T13:45:58;25.90;25.10
74101;DHT22;62462;52.530;21.682;2023-05-28T13:48:25;25.90;24.80
74101;DHT22;62462;52.530;21.682;2023-05-28T13:50:50;25.80;24.30
74101;DHT22;62462;52.530;21.682;2023-05-28T13:53:16;25.70;24.90
74101;DHT22;62462;52.530;21.682;2023-05-28T13:55:42;25.80;25.00
74101;DHT22;62462;52.530;21.682;2023-05-28T13:58:08;25.80;25.40
74101;DHT22;62462;52.530;21.682;2023-05-28T14:00:33;25.90;25.40
74101;DHT22;62462;52.530;21.682;2023-05-28T14:02:59;26.00;25.50
74101;DHT22;62462;52.530;21.682;2023-05-28T14:05:25;26.30;26.00
74101;DHT22;62462;52.530;21.682;2023-05-28T14:07:51;26.50;25.10
74101;DHT22;62462;52.530;21.682;2023-05-28T14:10:17;26.50;24.00
74101;DHT22;62462;52.530;21.682;2023-05-28T14:12:46;26.40;25.00
74101;DHT22;62462;52.530;21.682;2023-05-28T14:15:15;26.30;25.10
74101;DHT22;62462;52.530;21.682;2023-05-28T14:17:41;26.20;25.90
74101;DHT22;62462;52.530;21.682;2023-05-28T14:20:06;26.20;26.10
74101;DHT22;62462;52.530;21.682;2023-05-28T14:22:33;26.20;25.80
74101;DHT22;62462;52.530;21.682;2023-05-28T14:24:59;26.20;26.20
74101;DHT22;62462;52.530;21.682;2023-05-28T14:27:25;26.30;25.70
74101;DHT22;62462;52.530;21.682;2023-05-28T14:29:51;26.20;25.40
74101;DHT22;62462;52.530;21.682;2023-05-28T14:32:16;26.20;26.20
74101;DHT22;62462;52.530;21.682;2023-05-28T14:34:42;26.30;25.40
74101;DHT22;62462;52.530;21.682;2023-05-28T14:37:08;26.40;25.80
74101;DHT22;62462;52.530;21.682;2023-05-28T14:39:33;26.40;25.40
74101;DHT22;62462;52.530;21.682;2023-05-28T14:41:59;26.40;25.80
74101;DHT22;62462;52.530;21.682;2023-05-28T14:44:25;26.40;25.60
74101;DHT22;62462;52.530;21.682;2023-05-28T14:46:51;26.40;26.00
74101;DHT22;62462;52.530;21.682;2023-05-28T14:49:16;26.40;25.40
74101;DHT22;62462;52.530;21.682;2023-05-28T14:51:43;26.30;24.20
74101;DHT22;62462;52.530;21.682;2023-05-28T14:54:08;26.10;24.10
74101;DHT22;62462;52.530;21.682;2023-05-28T14:56:34;26.00;24.70
74101;DHT22;62462;52.530;21.682;2023-05-28T14:59:00;26.00;25.70
74101;DHT22;62462;52.530;21.682;2023-05-28T15:01:26;26.00;25.60
74101;DHT22;62462;52.530;21.682;2023-05-28T15:03:52;26.00;25.60
74101;DHT22;62462;52.530;21.682;2023-05-28T15:06:18;26.00;25.90
74101;DHT22;62462;52.530;21.682;2023-05-28T15:08:44;26.00;25.30
74101;DHT22;62462;52.530;21.682;2023-05-28T15:11:12;26.00;25.90
74101;DHT22;62462;52.530;21.682;2023-05-28T15:13:38;26.10;25.80
74101;DHT22;62462;52.530;21.682;2023-05-28T15:16:05;26.00;24.40
74101;DHT22;62462;52.530;21.682;2023-05-28T15:18:31;25.70;24.10
74101;DHT22;62462;52.530;21.682;2023-05-28T15:20:57;25.50;24.20
74101;DHT22;62462;52.530;21.682;2023-05-28T15:23:22;25.40;25.20
74101;DHT22;62462;52.530;21.682;2023-05-28T15:25:48;25.40;25.50
74101;DHT22;62462;52.530;21.682;2023-05-28T15:28:14;25.40;25.40